ADDS METAR Data INFO
IDs: Format: Raw Decoded Include TAF

Data at: 0304 UTC 21 Oct 2017

KOXV 210255Z AUTO 17014G21KT 10SM CLR 18/10 A2985 RMK AO2
KOXV 210235Z AUTO 17014G20KT 10SM FEW170 18/10 A2985 RMK AO2
KOXV 210215Z AUTO 16014KT 10SM CLR 18/10 A2985 RMK AO2
KOXV 210155Z AUTO 17012KT 10SM CLR 18/10 A2985 RMK AO2
KOXV 210135Z AUTO 16012G18KT 10SM CLR 18/10 A2986 RMK AO2
KOXV 210115Z AUTO 16013G20KT 10SM CLR 18/10 A2985 RMK AO2
KOXV 210055Z AUTO 15011G17KT 10SM CLR 19/10 A2986 RMK AO2
KOXV 210035Z AUTO 16012G18KT 10SM FEW160 19/10 A2987 RMK AO2
KOXV 210015Z AUTO 17012KT 10SM SCT160 19/10 A2987 RMK AO2
KOXV 202355Z AUTO 17012G18KT FEW160 FEW270 19/10 A2987 RMK AO2
KOXV 202335Z AUTO 16009G16KT 10SM CLR 20/10 A2986 RMK AO2
KOXV 202315Z AUTO 16013KT 10SM CLR 20/10 A2986 RMK AO2
KOXV 202255Z AUTO 17012KT 10SM CLR 21/10 A2987 RMK AO2
KOXV 202235Z AUTO 16011G17KT 10SM CLR 21/10 A2987 RMK AO2
KOXV 202215Z AUTO 16010G17KT 10SM CLR 21/10 A2987 RMK AO2
KOXV 202155Z AUTO 17013G18KT 10SM CLR 21/10 A2987 RMK AO2
KOXV 202135Z AUTO 17015G21KT 10SM CLR 22/10 A2988 RMK AO2
KOXV 202115Z AUTO 17010G20KT 10SM CLR 22/10 A2988 RMK AO2
KOXV 202055Z AUTO 15013G22KT 10SM CLR 22/09 A2989 RMK AO2
KOXV 202035Z AUTO 16015G20KT 10SM CLR 23/10 A2989 RMK AO2
KOXV 202015Z AUTO 17014G22KT 10SM CLR 23/10 A2991 RMK AO2
KOXV 201955Z AUTO 17017KT 150V210 10SM CLR 23/10 A2992 RMK AO2
KOXV 201935Z AUTO 18017G22KT 10SM CLR 23/10 A2993 RMK AO2
KOXV 201915Z AUTO 17015G22KT 10SM CLR 23/11 A2994 RMK AO2
KOXV 201855Z AUTO 19015G20KT 10SM CLR 23/11 A2995 RMK AO2
KOXV 201835Z AUTO 19016G21KT 10SM CLR 23/11 A2996 RMK AO2
KOXV 201815Z AUTO 17014KT 10SM CLR 23/12 A2996 RMK AO2
KOXV 201755Z AUTO 18013G18KT 10SM CLR 23/12 A2998 RMK AO2
KOXV 201735Z AUTO 17016KT 10SM CLR 22/11 A2999 RMK AO2
KOXV 201715Z AUTO 18010G15KT 10SM CLR 21/12 A3000 RMK AO2
KOXV 201655Z AUTO 20012G17KT 10SM CLR 21/11 A3002 RMK AO2
KOXV 201635Z AUTO 21012G19KT 10SM CLR 20/11 A3002 RMK AO2
KOXV 201615Z AUTO 21011KT 10SM CLR 20/11 A3003 RMK AO2
KOXV 201555Z AUTO 21011G19KT 180V240 10SM CLR 20/11 A3003 RMK AO2
KOXV 201535Z AUTO 19011KT 10SM CLR 20/11 A3004 RMK AO2
KOXV 201515Z AUTO 21010G15KT 10SM CLR 19/11 A3005 RMK AO2
KOXV 201455Z AUTO 19009KT 180V240 10SM CLR 18/11 A3005 RMK AO2
KOXV 201435Z AUTO 20009KT 10SM CLR 17/11 A3005 RMK AO2
KOXV 201415Z AUTO 19009KT 10SM CLR 15/11 A3005 RMK AO2
KOXV 201355Z AUTO 19008KT 10SM CLR 14/11 A3005 RMK AO2
KOXV 201335Z AUTO 18007KT 10SM CLR 14/10 A3005 RMK AO2
KOXV 201315Z AUTO VRB06G12KT 10SM CLR 13/10 A3005 RMK AO2
KOXV 201255Z AUTO 19009KT 10SM CLR 13/10 A3005 RMK AO2
KOXV 201235Z AUTO 19009KT 10SM CLR 13/10 A3005 RMK AO2
KOXV 201215Z AUTO 19008KT 10SM CLR 13/10 A3005 RMK AO2
KOXV 201155Z AUTO 19009KT 10SM CLR 13/10 A3005 RMK AO2
KOXV 201135Z AUTO 19009KT 10SM FEW310 13/10 A3005 RMK AO2
KOXV 201115Z AUTO 19008KT 10SM FEW310 13/10 A3005 RMK AO2
KOXV 201055Z AUTO 19008KT 10SM CLR 13/10 A3005 RMK AO2
KOXV 201035Z AUTO 19009KT 10SM CLR 14/10 A3005 RMK AO2
KOXV 201015Z AUTO 19008KT 10SM CLR 14/10 A3004 RMK AO2
KOXV 200955Z AUTO 20009KT 10SM CLR 15/10 A3004 RMK AO2
KOXV 200935Z AUTO 21009G15KT 10SM CLR 15/10 A3004 RMK AO2
KOXV 200915Z AUTO 21011KT 10SM CLR 15/10 A3004 RMK AO2
KOXV 200855Z AUTO 21010KT 10SM CLR 15/10 A3004 RMK AO2
KOXV 200835Z AUTO 21010KT 10SM FEW290 FEW310 15/10 A3004 RMK AO2
KOXV 200815Z AUTO 21008KT 10SM FEW290 FEW310 15/10 A3004 RMK AO2
KOXV 200755Z AUTO 20008KT 10SM CLR 15/10 A3004 RMK AO2
KOXV 200735Z AUTO 19007KT 10SM CLR 15/10 A3004 RMK AO2
KOXV 200715Z AUTO 20008KT 10SM CLR 15/10 A3004 RMK AO2
KOXV 200655Z AUTO 19009KT 10SM CLR 15/10 A3004 RMK AO2
KOXV 200635Z AUTO 19008KT 10SM CLR 15/10 A3004 RMK AO2
KOXV 200615Z AUTO 19008KT 10SM CLR 15/10 A3003 RMK AO2
KOXV 200555Z AUTO 19008KT 10SM CLR 16/10 A3003 RMK AO2
KOXV 200535Z AUTO 18007KT 10SM CLR 16/10 A3003 RMK AO2
KOXV 200515Z AUTO 18008KT 10SM CLR 16/10 A3003 RMK AO2
KOXV 200455Z AUTO 19009KT 10SM CLR 16/10 A3003 RMK AO2
KOXV 200435Z AUTO 19008KT 10SM CLR 16/10 A3003 RMK AO2
KOXV 200415Z AUTO 18007KT 10SM CLR 16/10 A3003 RMK AO2
KOXV 200355Z AUTO 19005KT 10SM CLR 16/10 A3003 RMK AO2
KOXV 200335Z AUTO 16005KT 10SM CLR 16/11 A3003 RMK AO2
KOXV 200315Z AUTO 17006KT 10SM CLR 16/11 A3004 RMK AO2
KOXV 200255Z AUTO 15006KT 10SM CLR 17/11 A3004 RMK AO2
KOXV 200235Z AUTO 16007KT 10SM CLR 17/11 A3004 RMK AO2
KOXV 200215Z AUTO 15006KT 10SM CLR 17/11 A3003 RMK AO2
KOXV 200155Z AUTO 15005KT 10SM CLR 17/12 A3003 RMK AO2
KOXV 200135Z AUTO 15005KT 10SM CLR 17/12 A3004 RMK AO2
KOXV 200115Z AUTO 14004KT 10SM CLR 18/12 A3004 RMK AO2
KOXV 200055Z AUTO 15006KT 10SM CLR 18/12 A3004 RMK AO2
KOXV 200035Z AUTO 15005KT 10SM CLR 19/12 A3004 RMK AO2
KOXV 200015Z AUTO 16005KT 10SM CLR 19/12 A3004 RMK AO2
KOXV 192355Z AUTO 15005KT 10SM CLR 20/12 A3004 RMK AO2
KOXV 192335Z AUTO 15005KT 10SM CLR 21/12 A3003 RMK AO2
KOXV 192315Z AUTO 15006KT 10SM CLR 22/12 A3003 RMK AO2
KOXV 192255Z AUTO 15006KT 10SM CLR 23/12 A3003 RMK AO2
KOXV 192235Z AUTO 16006KT 10SM CLR 23/12 A3003 RMK AO2
KOXV 192215Z AUTO 16007KT 10SM CLR 24/12 A3003 RMK AO2
KOXV 192155Z AUTO 16008KT 10SM CLR 24/12 A3003 RMK AO2
KOXV 192135Z AUTO 16011KT 10SM CLR 24/12 A3004 RMK AO2
KOXV 192115Z AUTO 17011KT 10SM CLR 24/11 A3004 RMK AO2
KOXV 192055Z AUTO 15007G13KT 10SM CLR 24/12 A3004 RMK AO2
KOXV 192035Z AUTO 15009G14KT 10SM CLR 24/11 A3005 RMK AO2
KOXV 192015Z AUTO 16008G14KT 10SM CLR 24/11 A3005 RMK AO2
KOXV 191955Z AUTO 17009KT 10SM CLR 24/11 A3006 RMK AO2
KOXV 191935Z AUTO 16010KT 10SM CLR 24/11 A3006 RMK AO2
KOXV 191915Z AUTO 15010KT 9SM CLR 24/10 A3007 RMK AO2
KOXV 191855Z AUTO 12008KT 10SM CLR 23/10 A3007 RMK AO2
KOXV 191835Z AUTO VRB06KT 10SM CLR 23/10 A3008 RMK AO2
KOXV 191815Z AUTO 14009KT 100V160 10SM CLR 22/09 A3010 RMK AO2
KOXV 191755Z AUTO 14008KT 110V180 10SM CLR 22/08 A3011 RMK AO2
KOXV 191735Z AUTO 11007KT 10SM CLR 21/07 A3011 RMK AO2
KOXV 191715Z AUTO 12008KT 090V150 10SM CLR 21/06 A3012 RMK AO2
KOXV 191655Z AUTO 14010KT 10SM CLR 20/05 A3012 RMK AO2
KOXV 191635Z AUTO 13011G16KT 10SM CLR 19/03 A3012 RMK AO2
KOXV 191615Z AUTO 13010G15KT 10SM CLR 19/03 A3012 RMK AO2
KOXV 191555Z AUTO 13014KT 10SM CLR 18/01 A3013 RMK AO2
KOXV 191535Z AUTO 12011G17KT 10SM CLR 17/02 A3013 RMK AO2
KOXV 191515Z AUTO 12010KT 10SM CLR 16/03 A3013 RMK AO2